Time;durP1;ratioP1;P1;durP2;ratioP2;P2;SDS_P1;SDS_P2;PMS_P1;PMS_P2;Temp;Humidity;BMP_temperature;BMP_pressure;BME280_temperature;BME280_humidity;BME280_pressure;Samples;Min_cycle;Max_cycle;Signal;HPM_P1;HPM_P2
2024/03/09 00:00:34;;;;;;;68.68;34.00;;;5.30;1.00;;;;;;5052769;28;20029;-71
2024/03/09 00:03:00;;;;;;;69.80;34.25;;;5.30;1.00;;;;;;5052978;28;20032;-71
2024/03/09 00:05:27;;;;;;;65.63;33.72;;;5.20;1.00;;;;;;5052429;28;20387;-71
2024/03/09 00:07:55;;;;;;;69.32;34.17;;;5.10;1.00;;;;;;5052500;28;20032;-71
2024/03/09 00:10:22;;;;;;;63.10;32.92;;;5.20;1.00;;;;;;5052739;28;20029;-71
2024/03/09 00:12:48;;;;;;;64.97;33.45;;;5.20;1.00;;;;;;5052748;28;20074;-71
2024/03/09 00:15:15;;;;;;;70.10;34.25;;;5.20;1.00;;;;;;5052797;28;20116;-71
2024/03/09 00:17:42;;;;;;;65.82;32.97;;;5.20;1.00;;;;;;5052936;28;20036;-71
2024/03/09 00:20:13;;;;;;;66.90;34.17;;;5.20;1.00;;;;;;5052784;28;20028;-70
2024/03/09 00:22:40;;;;;;;71.13;34.60;;;5.20;1.00;;;;;;5052425;28;20498;-71
2024/03/09 00:25:07;;;;;;;69.68;33.50;;;5.30;1.00;;;;;;5052842;28;20162;-70
2024/03/09 00:27:33;;;;;;;69.18;34.17;;;5.20;1.00;;;;;;5052646;28;20043;-71
2024/03/09 00:29:59;;;;;;;67.85;34.40;;;5.20;1.00;;;;;;5052730;28;20107;-71
2024/03/09 00:32:25;;;;;;;71.05;34.60;;;5.10;1.00;;;;;;5052054;28;20025;-71
2024/03/09 00:34:51;;;;;;;66.55;33.45;;;5.10;1.00;;;;;;5052110;28;20121;-71
2024/03/09 00:37:17;;;;;;;67.38;34.47;;;5.10;1.00;;;;;;5052237;28;20032;-71
2024/03/09 00:39:43;;;;;;;66.95;35.15;;;5.10;1.00;;;;;;5052707;28;20501;-70
2024/03/09 00:42:14;;;;;;;67.82;34.15;;;5.10;1.00;;;;;;5055440;28;20036;-71
2024/03/09 00:44:41;;;;;;;71.00;34.97;;;5.10;1.00;;;;;;5055912;28;20025;-71
2024/03/09 00:47:07;;;;;;;69.03;34.08;;;5.00;1.00;;;;;;5056293;28;20025;-71
2024/03/09 00:49:34;;;;;;;70.03;34.50;;;5.00;1.00;;;;;;5055736;28;20077;-71
2024/03/09 00:52:00;;;;;;;68.35;33.88;;;4.90;1.00;;;;;;5055850;28;20029;-71
2024/03/09 00:54:26;;;;;;;68.95;34.00;;;4.90;1.00;;;;;;5055708;28;20487;-71
2024/03/09 00:56:52;;;;;;;68.15;33.70;;;5.00;1.00;;;;;;5055596;28;20111;-70
2024/03/09 00:59:19;;;;;;;68.20;35.65;;;4.90;1.00;;;;;;5055569;28;20032;-71
2024/03/09 01:01:44;;;;;;;63.75;33.17;;;4.90;1.00;;;;;;5055930;28;20387;-71
2024/03/09 01:04:10;;;;;;;63.35;33.22;;;4.90;1.00;;;;;;5055583;28;20028;-70
2024/03/09 01:06:37;;;;;;;68.75;34.72;;;4.90;1.00;;;;;;5055825;28;20037;-71
2024/03/09 01:09:03;;;;;;;63.28;33.80;;;4.80;1.00;;;;;;5055682;28;20029;-71
2024/03/09 01:11:30;;;;;;;64.18;32.17;;;4.90;1.00;;;;;;5055641;28;20360;-71
2024/03/09 01:13:56;;;;;;;68.75;33.97;;;4.80;1.00;;;;;;5055514;28;20134;-71
2024/03/09 01:16:22;;;;;;;64.70;33.30;;;4.80;1.00;;;;;;5055506;28;20033;-70
2024/03/09 01:18:48;;;;;;;66.60;34.53;;;4.80;1.00;;;;;;5055592;28;20033;-71
2024/03/09 01:21:14;;;;;;;69.15;34.72;;;4.80;1.00;;;;;;5055520;28;20132;-70
2024/03/09 01:23:40;;;;;;;69.90;34.10;;;4.70;1.00;;;;;;5055592;28;20526;-71
2024/03/09 01:26:08;;;;;;;68.30;33.90;;;4.80;1.00;;;;;;5055386;28;20065;-71
2024/03/09 01:28:34;;;;;;;65.80;33.78;;;4.70;1.00;;;;;;5054910;28;20025;-70
2024/03/09 01:31:00;;;;;;;62.65;32.45;;;4.70;1.00;;;;;;5055420;28;20090;-70
2024/03/09 01:33:26;;;;;;;65.00;32.97;;;4.70;1.00;;;;;;5054951;28;20477;-70
2024/03/09 01:35:51;;;;;;;67.70;33.35;;;4.60;1.00;;;;;;5055188;28;20086;-71
2024/03/09 01:38:20;;;;;;;76.72;35.70;;;4.60;1.00;;;;;;5055297;28;20033;-70
2024/03/09 01:40:45;;;;;;;68.05;32.88;;;4.60;1.00;;;;;;5055194;28;20074;-71
2024/03/09 01:43:16;;;;;;;68.40;34.53;;;4.50;1.00;;;;;;5055189;28;20044;-71
2024/03/09 01:45:44;;;;;;;69.00;34.05;;;4.50;1.00;;;;;;5054994;28;20025;-71
2024/03/09 01:48:11;;;;;;;67.65;34.10;;;4.40;1.00;;;;;;5055048;28;20059;-71
2024/03/09 01:50:37;;;;;;;68.32;34.92;;;4.40;1.00;;;;;;5055138;28;20030;-70
2024/03/09 01:53:04;;;;;;;69.78;35.25;;;4.40;1.00;;;;;;5054387;28;20120;-71
2024/03/09 01:55:30;;;;;;;67.53;33.75;;;4.40;1.00;;;;;;5054826;28;20091;-71
2024/03/09 01:57:56;;;;;;;67.40;33.55;;;4.30;1.00;;;;;;5054866;28;20025;-71
2024/03/09 02:00:23;;;;;;;71.55;34.15;;;4.30;1.00;;;;;;5054412;28;20116;-71
2024/03/09 02:02:50;;;;;;;62.90;31.60;;;4.40;1.00;;;;;;5054738;28;20032;-71
2024/03/09 02:05:16;;;;;;;69.97;34.88;;;4.30;1.00;;;;;;5054364;28;20052;-71
2024/03/09 02:07:44;;;;;;;69.10;34.80;;;4.30;1.00;;;;;;5054707;28;20522;-70
2024/03/09 02:10:13;;;;;;;67.40;34.03;;;4.20;1.00;;;;;;5054623;28;20040;-71
2024/03/09 02:12:39;;;;;;;71.68;35.38;;;4.20;1.00;;;;;;5054679;28;20033;-71
2024/03/09 02:15:05;;;;;;;64.00;32.78;;;4.10;1.00;;;;;;5054120;28;20074;-71
2024/03/09 02:17:33;;;;;;;66.72;33.90;;;4.10;1.00;;;;;;5054357;28;20391;-71
2024/03/09 02:19:59;;;;;;;69.72;33.75;;;4.10;1.00;;;;;;5054380;28;20028;-71
2024/03/09 02:22:25;;;;;;;67.05;33.28;;;4.00;1.00;;;;;;5054350;28;20123;-70
2024/03/09 02:24:55;;;;;;;68.88;35.65;;;4.00;1.00;;;;;;5054356;28;20029;-70
2024/03/09 02:27:24;;;;;;;72.53;34.03;;;4.00;1.00;;;;;;5054357;28;20135;-70
2024/03/09 02:29:50;;;;;;;65.50;33.85;;;3.90;1.00;;;;;;5053820;28;20025;-70
2024/03/09 02:32:15;;;;;;;66.72;33.40;;;4.00;1.00;;;;;;5053817;28;20392;-71
2024/03/09 02:34:41;;;;;;;76.82;35.90;;;4.00;1.00;;;;;;5053464;28;20402;-71
2024/03/09 02:37:07;;;;;;;63.40;32.83;;;4.00;1.00;;;;;;5054149;28;20052;-70
2024/03/09 02:39:33;;;;;;;67.53;33.42;;;3.90;1.00;;;;;;5053984;28;20017;-70
2024/03/09 02:41:58;;;;;;;69.18;34.58;;;3.80;1.00;;;;;;5053516;28;20128;-71
2024/03/09 02:44:26;;;;;;;63.72;32.45;;;3.80;1.00;;;;;;5053508;28;20029;-71
2024/03/09 02:46:52;;;;;;;72.18;34.03;;;3.80;1.00;;;;;;5053883;28;20398;-71
2024/03/09 02:49:19;;;;;;;75.03;35.00;;;3.70;1.00;;;;;;5053931;28;20040;-70
2024/03/09 02:51:46;;;;;;;66.65;32.88;;;3.80;1.00;;;;;;5053889;28;20165;-70
2024/03/09 02:54:14;;;;;;;66.88;33.42;;;3.70;1.00;;;;;;5053541;28;20028;-71
2024/03/09 02:56:39;;;;;;;67.63;33.42;;;3.70;1.00;;;;;;5053817;28;20032;-70
2024/03/09 02:59:05;;;;;;;65.95;33.50;;;3.80;1.00;;;;;;5053587;28;20029;-70
2024/03/09 03:01:30;;;;;;;65.13;32.45;;;3.80;1.00;;;;;;5053649;28;20040;-71
2024/03/09 03:03:59;;;;;;;64.80;33.90;;;3.70;1.00;;;;;;5053248;28;20395;-71
2024/03/09 03:06:28;;;;;;;66.15;33.38;;;3.70;1.00;;;;;;5053608;28;20029;-71
2024/03/09 03:08:57;;;;;;;62.10;32.08;;;3.60;1.00;;;;;;5053552;28;20166;-70
2024/03/09 03:11:23;;;;;;;71.13;34.00;;;3.60;1.30;;;;;;5053475;28;20086;-70
2024/03/09 03:13:50;;;;;;;64.40;32.47;;;3.60;1.00;;;;;;5053009;28;20029;-70
2024/03/09 03:16:20;;;;;;;68.22;33.50;;;3.60;1.00;;;;;;5053393;28;20075;-71
2024/03/09 03:18:48;;;;;;;66.60;31.23;;;3.60;1.00;;;;;;5053310;28;20036;-71
2024/03/09 03:21:14;;;;;;;66.07;32.60;;;3.50;1.00;;;;;;5052897;28;20029;-71
2024/03/09 03:23:41;;;;;;;66.20;33.92;;;3.50;4.60;;;;;;5053389;28;20056;-70
2024/03/09 03:26:06;;;;;;;64.05;31.20;;;3.60;1.10;;;;;;5053313;28;20025;-70
2024/03/09 03:28:32;;;;;;;67.63;33.83;;;3.60;1.00;;;;;;5053282;28;20035;-70
2024/03/09 03:30:59;;;;;;;68.20;33.10;;;3.60;1.00;;;;;;5053157;28;20071;-70
2024/03/09 03:33:26;;;;;;;66.18;32.65;;;3.50;1.00;;;;;;5052792;28;20040;-70
2024/03/09 03:35:51;;;;;;;69.90;33.22;;;3.50;1.00;;;;;;5053175;28;20025;-70
2024/03/09 03:38:17;;;;;;;64.68;32.05;;;3.40;1.90;;;;;;5053239;28;20044;-70
2024/03/09 03:40:43;;;;;;;63.22;32.92;;;3.50;6.20;;;;;;5053292;28;20033;-71
2024/03/09 03:43:10;;;;;;;60.50;31.08;;;3.30;1.00;;;;;;5053139;28;20048;-70
2024/03/09 03:45:36;;;;;;;61.95;30.90;;;3.30;8.10;;;;;;5052744;28;20025;-70
2024/03/09 03:48:04;;;;;;;64.55;32.33;;;3.30;8.90;;;;;;5052615;28;20048;-70
2024/03/09 03:50:30;;;;;;;64.85;31.58;;;3.40;7.70;;;;;;5053108;28;20387;-70
2024/03/09 03:52:55;;;;;;;63.58;31.88;;;3.30;11.20;;;;;;5052971;28;20026;-70
2024/03/09 03:55:21;;;;;;;69.97;32.63;;;3.30;14.10;;;;;;5052769;28;20037;-70
2024/03/09 03:57:47;;;;;;;67.63;32.67;;;3.30;18.50;;;;;;5053038;28;20025;-70
2024/03/09 04:00:13;;;;;;;61.25;29.73;;;3.30;14.50;;;;;;5052641;28;20512;-71
2024/03/09 04:02:41;;;;;;;62.78;30.92;;;3.30;11.40;;;;;;5053074;28;20025;-70
2024/03/09 04:05:07;;;;;;;65.72;31.20;;;3.30;12.30;;;;;;5052979;28;20107;-71
2024/03/09 04:07:33;;;;;;;64.30;31.02;;;3.30;12.90;;;;;;5052858;28;20021;-71
2024/03/09 04:10:06;;;;;;;57.67;29.42;;;3.20;12.90;;;;;;5052661;28;20116;-70
2024/03/09 04:12:40;;;;;;;65.22;31.58;;;3.20;17.40;;;;;;5052854;28;20478;-70
2024/03/09 04:15:08;;;;;;;62.75;31.20;;;3.30;14.30;;;;;;5052490;28;20399;-70
2024/03/09 04:17:34;;;;;;;67.82;31.80;;;3.20;12.80;;;;;;5056417;28;20025;-71
2024/03/09 04:20:00;;;;;;;64.90;30.77;;;3.10;16.00;;;;;;5056200;28;20021;-70
2024/03/09 04:22:25;;;;;;;58.33;30.23;;;3.00;17.80;;;;;;5056609;28;20063;-70
2024/03/09 04:24:51;;;;;;;59.72;29.55;;;3.00;26.10;;;;;;5056584;28;20135;-70
2024/03/09 04:27:18;;;;;;;63.78;30.00;;;3.00;25.20;;;;;;5056275;28;20451;-70
2024/03/09 04:29:47;;;;;;;59.25;31.10;;;2.90;26.60;;;;;;5056545;28;20029;-70
2024/03/09 04:32:14;;;;;;;59.75;30.63;;;3.00;30.30;;;;;;5056386;28;20417;-70
2024/03/09 04:34:40;;;;;;;63.47;30.70;;;2.90;32.10;;;;;;5055984;28;20102;-70
2024/03/09 04:37:07;;;;;;;59.33;30.17;;;2.90;31.50;;;;;;5055893;28;20025;-70
2024/03/09 04:39:38;;;;;;;61.80;29.67;;;2.80;34.90;;;;;;5056211;28;20018;-70
2024/03/09 04:42:04;;;;;;;62.17;29.55;;;2.80;34.90;;;;;;5056242;28;20021;-70
2024/03/09 04:44:31;;;;;;;60.25;31.58;;;2.70;39.10;;;;;;5056169;28;20021;-70
2024/03/09 04:46:57;;;;;;;59.85;29.17;;;2.60;49.00;;;;;;5055761;28;20043;-70
2024/03/09 04:49:22;;;;;;;60.92;28.67;;;2.80;51.90;;;;;;5056181;28;20028;-70
2024/03/09 04:51:49;;;;;;;65.40;30.58;;;2.80;45.10;;;;;;5056011;28;20028;-70
2024/03/09 04:54:18;;;;;;;66.00;30.50;;;2.80;40.50;;;;;;5055868;28;20399;-70
2024/03/09 04:56:44;;;;;;;61.67;29.25;;;2.80;43.00;;;;;;5055949;28;20020;-71
2024/03/09 04:59:09;;;;;;;60.85;30.50;;;2.80;38.80;;;;;;5056003;28;20497;-71
2024/03/09 05:01:35;;;;;;;62.88;30.40;;;2.70;38.30;;;;;;5055435;28;20104;-70
2024/03/09 05:04:00;;;;;;;61.05;29.02;;;2.70;46.10;;;;;;5055423;28;20106;-70
2024/03/09 05:06:29;;;;;;;60.33;29.70;;;2.70;50.30;;;;;;5055389;28;20029;-70
2024/03/09 05:08:55;;;;;;;64.07;31.15;;;2.70;49.60;;;;;;5055710;28;20029;-70
2024/03/09 05:11:20;;;;;;;63.85;29.08;;;2.80;47.50;;;;;;5055588;28;20085;-70
2024/03/09 05:13:46;;;;;;;61.28;29.98;;;2.80;38.80;;;;;;5055736;28;20025;-71
2024/03/09 05:16:11;;;;;;;61.78;29.38;;;2.80;36.90;;;;;;5055328;28;20060;-71
2024/03/09 05:18:37;;;;;;;60.20;30.33;;;2.80;37.00;;;;;;5055547;28;20048;-70
2024/03/09 05:21:03;;;;;;;62.47;28.90;;;2.80;39.70;;;;;;5055125;28;20028;-71
2024/03/09 05:23:28;;;;;;;59.03;28.73;;;2.80;38.60;;;;;;5055161;28;20037;-70
2024/03/09 05:25:54;;;;;;;55.05;28.38;;;2.80;39.50;;;;;;5055418;28;20033;-71
2024/03/09 05:28:20;;;;;;;63.60;29.27;;;2.80;36.80;;;;;;5054682;28;20115;-70
2024/03/09 05:30:46;;;;;;;57.30;28.42;;;2.70;38.50;;;;;;5055447;28;20110;-70
2024/03/09 05:33:11;;;;;;;56.30;27.17;;;2.80;42.90;;;;;;5054658;28;20103;-70
2024/03/09 05:35:37;;;;;;;57.55;28.05;;;2.80;40.40;;;;;;5055279;28;20029;-70
2024/03/09 05:38:04;;;;;;;62.42;28.75;;;2.80;35.50;;;;;;5055256;28;20017;-70
2024/03/09 05:40:30;;;;;;;60.22;29.58;;;2.80;33.60;;;;;;5055342;28;20036;-70
2024/03/09 05:42:56;;;;;;;59.55;29.13;;;2.80;36.20;;;;;;5055195;28;20029;-70
2024/03/09 05:45:23;;;;;;;54.63;27.90;;;2.90;31.10;;;;;;5055244;28;20124;-70
2024/03/09 05:47:50;;;;;;;58.67;28.10;;;2.80;29.30;;;;;;5055195;28;20036;-70
2024/03/09 05:50:16;;;;;;;51.85;26.30;;;2.90;29.80;;;;;;5054667;28;20025;-70
2024/03/09 05:52:44;;;;;;;50.25;26.15;;;2.90;27.40;;;;;;5055078;28;20086;-70
2024/03/09 05:55:11;;;;;;;54.78;26.70;;;2.90;25.00;;;;;;5054647;28;20065;-71
2024/03/09 05:57:39;;;;;;;54.70;25.80;;;2.90;24.80;;;;;;5054920;28;20078;-71
2024/03/09 06:00:05;;;;;;;53.88;25.83;;;2.90;22.70;;;;;;5054768;28;20021;-70
2024/03/09 06:02:32;;;;;;;52.10;25.88;;;2.90;24.30;;;;;;5054430;28;20029;-70
2024/03/09 06:04:58;;;;;;;53.03;25.80;;;2.90;23.90;;;;;;5054398;28;20025;-70
2024/03/09 06:07:23;;;;;;;52.53;26.65;;;3.00;21.30;;;;;;5054730;28;20043;-71
2024/03/09 06:09:49;;;;;;;56.55;26.58;;;3.10;15.60;;;;;;5054719;28;20056;-70
2024/03/09 06:12:15;;;;;;;53.90;25.75;;;3.10;10.80;;;;;;5054734;28;20021;-70
2024/03/09 06:14:44;;;;;;;53.72;26.52;;;3.20;8.10;;;;;;5054418;28;20545;-71
2024/03/09 06:17:10;;;;;;;54.92;27.52;;;3.30;1.20;;;;;;5054545;28;20017;-71
2024/03/09 06:19:36;;;;;;;53.28;25.88;;;3.40;1.00;;;;;;5054415;28;20103;-70
2024/03/09 06:22:01;;;;;;;52.85;25.27;;;3.60;1.00;;;;;;5054397;28;20056;-70
2024/03/09 06:24:30;;;;;;;49.75;25.15;;;3.80;1.00;;;;;;5054467;28;20065;-70
2024/03/09 06:26:57;;;;;;;49.80;24.95;;;4.10;1.00;;;;;;5054303;28;20115;-70
2024/03/09 06:29:23;;;;;;;43.40;22.58;;;4.50;1.00;;;;;;5054157;28;20115;-70
2024/03/09 06:31:49;;;;;;;48.13;23.67;;;4.50;1.00;;;;;;5054341;28;20546;-70
2024/03/09 06:34:15;;;;;;;51.33;25.63;;;4.20;1.00;;;;;;5053877;28;20131;-71
2024/03/09 06:36:41;;;;;;;48.05;23.63;;;4.00;1.00;;;;;;5054326;28;20077;-71
2024/03/09 06:39:06;;;;;;;48.90;24.88;;;3.90;1.00;;;;;;5053422;28;20472;-70
2024/03/09 06:41:32;;;;;;;49.60;24.35;;;3.80;1.00;;;;;;5053998;28;20024;-71
2024/03/09 06:43:57;;;;;;;45.75;23.63;;;3.90;1.00;;;;;;5053627;28;20028;-70
2024/03/09 06:46:23;;;;;;;46.67;23.30;;;4.30;1.00;;;;;;5054104;28;20395;-70
2024/03/09 06:48:51;;;;;;;48.17;23.50;;;5.30;1.00;;;;;;5053931;28;20394;-70
2024/03/09 06:51:19;;;;;;;39.38;21.65;;;6.90;99.90;;;;;;5053609;28;20040;-70
2024/03/09 06:53:45;;;;;;;36.53;21.08;;;8.10;1.00;;;;;;5053872;28;20502;-70
2024/03/09 06:56:11;;;;;;;36.53;20.83;;;8.90;99.90;;;;;;5053770;28;20029;-71
2024/03/09 06:58:37;;;;;;;37.97;22.10;;;9.40;1.00;;;;;;5053770;28;20031;-71
2024/03/09 07:01:03;;;;;;;36.80;20.30;;;9.00;1.00;;;;;;5053692;28;20075;-71
2024/03/09 07:03:29;;;;;;;36.15;20.92;;;8.40;1.00;;;;;;5053781;28;20068;-71
2024/03/09 07:05:54;;;;;;;38.60;19.77;;;8.30;1.00;;;;;;5053654;28;20507;-71
2024/03/09 07:08:21;;;;;;;39.88;20.38;;;7.50;99.90;;;;;;5053561;28;20112;-71
2024/03/09 07:10:47;;;;;;;37.90;20.45;;;7.00;99.90;;;;;;5053605;28;20043;-71
2024/03/09 07:13:12;;;;;;;39.70;21.17;;;6.80;99.90;;;;;;5053642;28;20025;-71
2024/03/09 07:15:38;;;;;;;38.30;21.13;;;7.10;99.90;;;;;;5053538;28;20032;-71
2024/03/09 07:18:03;;;;;;;33.50;19.60;;;7.50;99.90;;;;;;5053479;28;20029;-71
2024/03/09 07:20:32;;;;;;;33.70;20.15;;;8.60;99.90;;;;;;5053237;28;20022;-71
2024/03/09 07:22:58;;;;;;;34.78;18.92;;;9.50;1.00;;;;;;5052991;28;20028;-71
2024/03/09 07:25:26;;;;;;;36.97;21.27;;;9.30;41.40;;;;;;5053440;28;20029;-71
2024/03/09 07:27:54;;;;;;;38.65;21.77;;;8.90;99.90;;;;;;5053315;28;20036;-71
2024/03/09 07:30:21;;;;;;;37.50;21.90;;;8.40;22.10;;;;;;5053438;28;20078;-71
2024/03/09 07:32:49;;;;;;;39.15;21.33;;;7.70;99.90;;;;;;5053095;28;20037;-71
2024/03/09 07:35:16;;;;;;;40.05;21.08;;;7.10;99.90;;;;;;5053089;28;20103;-71
2024/03/09 07:37:53;;;;;;;39.53;21.60;;;6.60;99.90;;;;;;5052972;28;20025;-71
2024/03/09 07:40:22;;;;;;;40.25;21.65;;;6.40;1.00;;;;;;5053236;28;20079;-71
2024/03/09 07:42:48;;;;;;;38.60;22.08;;;6.20;88.00;;;;;;5053300;28;20057;-70
2024/03/09 07:45:15;;;;;;;38.67;21.58;;;6.00;99.90;;;;;;5052854;28;20025;-70
2024/03/09 07:47:42;;;;;;;42.70;22.08;;;5.80;99.90;;;;;;5053102;28;20036;-70
2024/03/09 07:50:14;;;;;;;44.28;22.42;;;5.70;99.90;;;;;;5054671;28;20037;-70
2024/03/09 07:52:42;;;;;;;39.22;20.58;;;5.60;99.90;;;;;;5057185;28;20029;-71
2024/03/09 07:55:08;;;;;;;37.72;21.50;;;5.60;99.90;;;;;;5056867;28;20475;-71
2024/03/09 07:57:33;;;;;;;41.78;21.90;;;5.60;99.90;;;;;;5057085;28;20108;-71
2024/03/09 07:59:59;;;;;;;36.88;21.10;;;5.50;99.90;;;;;;5057180;28;20029;-71
2024/03/09 08:02:25;;;;;;;39.60;21.27;;;5.60;99.90;;;;;;5056691;28;20474;-71
2024/03/09 08:04:51;;;;;;;39.08;21.20;;;5.50;99.90;;;;;;5056705;28;20027;-71
2024/03/09 08:07:17;;;;;;;37.83;21.30;;;5.50;99.90;;;;;;5056665;28;20115;-70
2024/03/09 08:09:43;;;;;;;38.55;20.95;;;5.60;99.90;;;;;;5056805;28;20040;-71
2024/03/09 08:12:09;;;;;;;40.20;21.80;;;5.70;99.90;;;;;;5056446;28;20029;-70
2024/03/09 08:14:35;;;;;;;41.58;20.80;;;5.60;99.90;;;;;;5056554;28;20493;-71
2024/03/09 08:17:01;;;;;;;37.00;20.88;;;5.60;99.90;;;;;;5056763;28;20028;-71
2024/03/09 08:19:26;;;;;;;42.05;21.13;;;5.70;99.90;;;;;;5056783;28;20036;-71
2024/03/09 08:21:52;;;;;;;39.45;21.10;;;5.70;1.00;;;;;;5056673;28;20029;-71
2024/03/09 08:24:18;;;;;;;37.80;20.73;;;5.70;1.00;;;;;;5056329;28;20114;-70
2024/03/09 08:26:45;;;;;;;37.55;20.10;;;5.80;1.00;;;;;;5056756;28;20041;-71
2024/03/09 08:29:15;;;;;;;37.72;21.58;;;5.80;99.90;;;;;;5056258;28;20090;-71
2024/03/09 08:31:42;;;;;;;37.75;20.83;;;5.80;99.90;;;;;;5056418;28;20028;-70
2024/03/09 08:34:07;;;;;;;36.20;20.55;;;5.80;99.90;;;;;;5056076;28;20053;-71
2024/03/09 08:36:35;;;;;;;41.78;21.98;;;5.80;1.00;;;;;;5056039;28;20372;-71
2024/03/09 08:39:01;;;;;;;40.15;21.35;;;5.80;99.90;;;;;;5056009;28;20086;-70
2024/03/09 08:41:28;;;;;;;37.38;19.98;;;5.90;1.00;;;;;;5055988;28;20025;-70
2024/03/09 08:43:53;;;;;;;37.88;20.75;;;6.00;1.00;;;;;;5056389;28;20047;-71
2024/03/09 08:46:19;;;;;;;40.28;20.15;;;6.10;99.90;;;;;;5056174;28;20032;-70
2024/03/09 08:48:45;;;;;;;42.17;20.77;;;6.20;99.90;;;;;;5055948;28;20025;-71
2024/03/09 08:51:10;;;;;;;37.97;21.67;;;6.30;99.90;;;;;;5056132;28;20537;-70
2024/03/09 08:53:36;;;;;;;37.30;20.58;;;6.40;2.50;;;;;;5055982;28;20483;-71
2024/03/09 08:56:03;;;;;;;33.50;20.13;;;6.50;1.00;;;;;;5055629;28;20502;-71
2024/03/09 08:58:30;;;;;;;39.80;20.90;;;6.60;1.00;;;;;;5056106;28;20048;-71
2024/03/09 09:00:56;;;;;;;38.15;20.70;;;6.80;99.90;;;;;;5055372;28;20025;-70
2024/03/09 09:03:23;;;;;;;38.08;19.77;;;7.20;99.90;;;;;;5055548;28;20470;-71
2024/03/09 09:05:49;;;;;;;36.05;20.10;;;7.60;1.00;;;;;;5055912;28;20021;-71
2024/03/09 09:08:24;;;;;;;34.85;20.50;;;8.00;1.00;;;;;;5055835;28;20497;-71
2024/03/09 09:10:51;;;;;;;37.88;20.13;;;8.40;99.90;;;;;;5055769;28;20028;-71
2024/03/09 09:13:17;;;;;;;35.15;18.67;;;8.90;99.90;;;;;;5055809;28;20029;-71
2024/03/09 09:15:46;;;;;;;34.70;19.77;;;9.70;99.90;;;;;;5055528;28;20113;-71
2024/03/09 09:18:14;;;;;;;34.00;19.95;;;10.50;99.90;;;;;;5055584;28;20420;-71
2024/03/09 09:20:40;;;;;;;33.00;19.95;;;11.60;9.60;;;;;;5055576;28;20025;-71
2024/03/09 09:23:06;;;;;;;28.67;18.02;;;12.10;1.00;;;;;;5055623;28;20079;-71
2024/03/09 09:25:32;;;;;;;31.58;19.75;;;12.60;37.00;;;;;;5055482;28;20124;-71
2024/03/09 09:27:59;;;;;;;28.98;17.75;;;12.70;67.00;;;;;;5055477;28;20475;-71
2024/03/09 09:30:26;;;;;;;28.10;18.98;;;13.20;1.00;;;;;;5055298;28;20036;-71
2024/03/09 09:32:51;;;;;;;27.83;18.73;;;13.50;57.10;;;;;;5055183;28;20064;-71
2024/03/09 09:35:20;;;;;;;31.50;20.08;;;12.90;75.50;;;;;;5055018;28;20075;-71
2024/03/09 09:37:46;;;;;;;28.05;19.33;;;13.00;1.00;;;;;;5055393;28;20467;-71
2024/03/09 09:40:13;;;;;;;30.42;18.58;;;12.80;1.00;;;;;;5054837;28;20028;-71
2024/03/09 09:42:38;;;;;;;29.83;18.17;;;12.20;1.00;;;;;;5055109;28;20108;-71
2024/03/09 09:45:05;;;;;;;30.27;18.58;;;12.00;1.00;;;;;;5055109;28;20191;-71
2024/03/09 09:47:32;;;;;;;29.98;18.52;;;11.90;1.00;;;;;;5055055;28;20028;-71
2024/03/09 09:50:00;;;;;;;33.92;19.58;;;11.40;1.00;;;;;;5055022;28;20040;-71
2024/03/09 09:52:29;;;;;;;32.70;19.80;;;11.20;1.00;;;;;;5055030;28;20479;-71
2024/03/09 09:54:56;;;;;;;29.58;17.60;;;11.00;1.00;;;;;;5054741;28;20108;-71
2024/03/09 09:57:21;;;;;;;32.88;19.88;;;11.10;1.00;;;;;;5054603;28;20578;-71
2024/03/09 09:59:47;;;;;;;30.70;18.95;;;11.50;1.00;;;;;;5054762;28;20108;-71
2024/03/09 10:02:14;;;;;;;27.13;17.17;;;12.00;1.00;;;;;;5054378;28;20154;-71
2024/03/09 10:04:40;;;;;;;26.58;16.98;;;11.80;1.00;;;;;;5054840;28;20087;-71
2024/03/09 10:07:07;;;;;;;30.67;18.65;;;11.70;1.00;;;;;;5054474;28;20467;-71
2024/03/09 10:09:33;;;;;;;29.88;17.60;;;11.90;1.00;;;;;;5054708;28;20037;-71
2024/03/09 10:11:59;;;;;;;26.90;16.40;;;12.70;1.00;;;;;;5054772;28;20033;-71
2024/03/09 10:14:27;;;;;;;28.50;17.38;;;13.40;1.00;;;;;;5053178;28;20024;-71
2024/03/09 10:16:53;;;;;;;28.05;17.75;;;13.30;99.90;;;;;;5054681;28;20025;-71
2024/03/09 10:19:20;;;;;;;26.95;18.05;;;13.60;99.90;;;;;;5054511;28;20551;-71
2024/03/09 10:21:49;;;;;;;24.23;16.33;;;14.30;99.90;;;;;;5054556;28;20025;-71
2024/03/09 10:24:16;;;;;;;29.80;17.48;;;14.50;99.90;;;;;;5053918;28;20158;-71
2024/03/09 10:26:45;;;;;;;25.08;16.02;;;15.00;99.90;;;;;;5054101;28;20025;-71
2024/03/09 10:29:11;;;;;;;29.65;17.23;;;14.70;99.90;;;;;;5053955;28;20054;-71
2024/03/09 10:31:42;;;;;;;23.70;16.88;;;14.60;99.90;;;;;;5054208;28;20033;-71
2024/03/09 10:34:08;;;;;;;28.63;17.83;;;14.40;99.90;;;;;;5053814;28;20040;-71
2024/03/09 10:36:34;;;;;;;28.70;17.55;;;;;;;;;;5053733;28;20372;-71
2024/03/09 10:39:00;;;;;;;23.67;16.55;;;14.50;99.90;;;;;;5053757;28;20506;-72
2024/03/09 10:41:26;;;;;;;25.95;16.35;;;14.50;99.90;;;;;;5054046;28;20033;-71
2024/03/09 10:43:54;;;;;;;24.98;16.60;;;14.70;99.90;;;;;;5054204;28;20072;-71
2024/03/09 10:46:23;;;;;;;26.70;16.55;;;14.50;99.90;;;;;;5054086;28;20399;-71
2024/03/09 10:48:51;;;;;;;26.55;16.77;;;14.70;99.90;;;;;;5054097;28;20052;-72
2024/03/09 10:51:44;;;;;;;26.17;16.20;;;14.70;99.90;;;;;;5054176;28;20033;-71
2024/03/09 10:54:43;;;;;;;27.13;17.05;;;14.80;99.90;;;;;;5053642;28;20547;-71
2024/03/09 10:57:11;;;;;;;24.98;15.75;;;14.60;99.90;;;;;;5053750;28;20028;-72
2024/03/09 10:59:41;;;;;;;24.33;16.80;;;15.10;99.90;;;;;;5053782;28;20025;-71
2024/03/09 11:02:07;;;;;;;24.75;17.23;;;15.20;99.90;;;;;;5053769;28;20025;-71
2024/03/09 11:04:34;;;;;;;23.02;15.88;;;14.90;99.90;;;;;;5053725;28;20483;-71
2024/03/09 11:07:01;;;;;;;24.20;17.00;;;15.30;99.90;;;;;;5053639;28;20032;-71
2024/03/09 11:09:31;;;;;;;26.38;17.08;;;14.60;99.90;;;;;;5053875;28;20025;-71
2024/03/09 11:11:59;;;;;;;26.55;16.98;;;15.00;99.90;;;;;;5053800;28;20040;-71
2024/03/09 11:14:25;;;;;;;26.38;17.23;;;14.60;99.90;;;;;;5053360;28;20032;-71
2024/03/09 11:16:53;;;;;;;27.08;17.13;;;15.40;99.90;;;;;;5053231;28;20083;-71
2024/03/09 11:19:19;;;;;;;23.10;16.33;;;15.90;99.90;;;;;;5053718;28;20116;-72
2024/03/09 11:21:48;;;;;;;25.75;17.48;;;15.70;99.90;;;;;;5053490;28;20116;-71
2024/03/09 11:24:14;;;;;;;26.15;17.05;;;15.40;99.90;;;;;;5052962;28;20394;-71
2024/03/09 11:26:50;;;;;;;23.92;17.02;;;15.20;99.90;;;;;;5053184;28;20064;-71
2024/03/09 11:29:17;;;;;;;24.73;15.75;;;14.90;99.90;;;;;;5053426;28;20037;-71
2024/03/09 11:31:43;;;;;;;24.40;15.95;;;14.60;99.90;;;;;;5053264;28;20479;-71
2024/03/09 11:34:21;;;;;;;24.55;16.52;;;14.60;99.90;;;;;;5052680;28;20051;-71
2024/03/09 11:36:57;;;;;;;24.60;16.27;;;14.40;99.90;;;;;;5053473;28;20446;-71
2024/03/09 11:39:28;;;;;;;26.77;17.05;;;13.80;99.90;;;;;;5053329;28;20111;-71
2024/03/09 11:41:55;;;;;;;27.05;16.27;;;13.40;99.90;;;;;;5053221;28;20553;-71
2024/03/09 11:44:23;;;;;;;25.88;16.65;;;13.00;99.90;;;;;;5053276;28;20055;-71
2024/03/09 11:46:50;;;;;;;30.25;17.58;;;13.00;99.90;;;;;;5053380;28;20123;-71
2024/03/09 11:49:16;;;;;;;23.83;16.63;;;13.20;99.90;;;;;;5053243;28;20033;-71
2024/03/09 11:51:42;;;;;;;25.17;16.75;;;12.90;99.90;;;;;;5053282;28;20033;-71
2024/03/09 11:54:10;;;;;;;23.85;16.70;;;12.70;99.90;;;;;;5052634;28;20025;-71
2024/03/09 11:56:36;;;;;;;27.40;17.67;;;12.60;99.90;;;;;;5053036;28;20036;-71
2024/03/09 11:59:06;;;;;;;28.45;16.52;;;12.60;99.90;;;;;;5052975;28;20064;-71
2024/03/09 12:01:34;;;;;;;25.70;16.38;;;12.70;99.90;;;;;;5052595;28;20509;-70
2024/03/09 12:04:01;;;;;;;27.55;18.25;;;12.80;99.90;;;;;;5053018;28;20033;-71
2024/03/09 12:06:27;;;;;;;27.00;15.68;;;13.10;99.90;;;;;;5053213;28;20120;-71
2024/03/09 12:08:54;;;;;;;24.90;17.23;;;13.20;99.90;;;;;;5053020;28;20067;-71
2024/03/09 12:11:22;;;;;;;25.58;17.02;;;13.10;99.90;;;;;;5052653;28;20072;-71
2024/03/09 12:13:49;;;;;;;28.70;17.20;;;13.00;99.90;;;;;;5052455;28;20025;-71
2024/03/09 12:16:16;;;;;;;26.30;16.75;;;13.00;99.90;;;;;;5052743;28;20036;-71
2024/03/09 12:18:45;;;;;;;26.73;16.55;;;12.90;99.90;;;;;;5052862;28;20029;-71
2024/03/09 12:21:13;;;;;;;24.98;16.70;;;13.20;99.90;;;;;;5052502;28;20025;-71
2024/03/09 12:23:39;;;;;;;24.35;16.65;;;13.20;99.90;;;;;;5052968;28;20124;-71
2024/03/09 12:26:05;;;;;;;29.95;16.83;;;13.40;99.90;;;;;;5052330;28;20464;-71
2024/03/09 12:28:31;;;;;;;27.23;17.05;;;13.60;99.90;;;;;;5052733;28;20471;-71
2024/03/09 12:30:57;;;;;;;25.58;16.23;;;13.40;99.90;;;;;;5052703;28;20064;-71
2024/03/09 12:33:27;;;;;;;25.73;16.67;;;13.20;99.90;;;;;;5052137;28;20182;-71
2024/03/09 12:35:59;;;;;;;25.38;16.33;;;13.40;99.90;;;;;;5052231;28;20025;-71